sensor_id;sensor_type;location;lat;lon;timestamp;P1;durP1;ratioP1;P2;durP2;ratioP2
44750;SDS011;30477;48.224;11.470;2022-12-11T00:00:56;46.83;;;25.80;;
44750;SDS011;30477;48.224;11.470;2022-12-11T00:03:22;52.92;;;26.75;;
44750;SDS011;30477;48.224;11.470;2022-12-11T00:05:47;50.70;;;26.30;;
44750;SDS011;30477;48.224;11.470;2022-12-11T00:08:12;49.42;;;26.45;;
44750;SDS011;30477;48.224;11.470;2022-12-11T00:10:38;49.10;;;26.63;;
44750;SDS011;30477;48.224;11.470;2022-12-11T00:13:03;47.37;;;26.50;;
44750;SDS011;30477;48.224;11.470;2022-12-11T00:15:29;52.15;;;28.00;;
44750;SDS011;30477;48.224;11.470;2022-12-11T00:17:54;50.23;;;27.80;;
44750;SDS011;30477;48.224;11.470;2022-12-11T00:20:20;50.00;;;28.00;;
44750;SDS011;30477;48.224;11.470;2022-12-11T00:22:46;52.20;;;28.13;;
44750;SDS011;30477;48.224;11.470;2022-12-11T00:25:11;54.30;;;27.87;;
44750;SDS011;30477;48.224;11.470;2022-12-11T00:27:36;53.27;;;27.30;;
44750;SDS011;30477;48.224;11.470;2022-12-11T00:30:02;49.70;;;26.70;;
44750;SDS011;30477;48.224;11.470;2022-12-11T00:32:28;52.92;;;27.42;;
44750;SDS011;30477;48.224;11.470;2022-12-11T00:34:53;52.87;;;27.10;;
44750;SDS011;30477;48.224;11.470;2022-12-11T00:37:19;53.90;;;28.97;;
44750;SDS011;30477;48.224;11.470;2022-12-11T00:39:45;50.22;;;26.70;;
44750;SDS011;30477;48.224;11.470;2022-12-11T00:42:12;49.43;;;26.77;;
44750;SDS011;30477;48.224;11.470;2022-12-11T00:44:37;53.33;;;27.10;;
44750;SDS011;30477;48.224;11.470;2022-12-11T00:47:03;48.50;;;25.77;;
44750;SDS011;30477;48.224;11.470;2022-12-11T00:49:28;45.50;;;25.40;;
44750;SDS011;30477;48.224;11.470;2022-12-11T00:51:53;47.07;;;25.40;;
44750;SDS011;30477;48.224;11.470;2022-12-11T00:54:19;45.47;;;24.90;;
44750;SDS011;30477;48.224;11.470;2022-12-11T00:56:44;44.37;;;23.37;;
44750;SDS011;30477;48.224;11.470;2022-12-11T00:59:09;43.23;;;23.97;;
44750;SDS011;30477;48.224;11.470;2022-12-11T01:01:35;47.43;;;23.70;;
44750;SDS011;30477;48.224;11.470;2022-12-11T01:04:00;45.13;;;24.17;;
44750;SDS011;30477;48.224;11.470;2022-12-11T01:06:26;43.33;;;22.73;;
44750;SDS011;30477;48.224;11.470;2022-12-11T01:08:52;41.03;;;23.45;;
44750;SDS011;30477;48.224;11.470;2022-12-11T01:11:37;42.25;;;23.55;;
44750;SDS011;30477;48.224;11.470;2022-12-11T01:14:03;42.95;;;24.23;;
44750;SDS011;30477;48.224;11.470;2022-12-11T01:16:28;39.77;;;22.80;;
44750;SDS011;30477;48.224;11.470;2022-12-11T01:18:53;39.27;;;22.47;;
44750;SDS011;30477;48.224;11.470;2022-12-11T01:21:19;40.60;;;22.70;;
44750;SDS011;30477;48.224;11.470;2022-12-11T01:23:44;42.40;;;23.30;;
44750;SDS011;30477;48.224;11.470;2022-12-11T01:26:11;37.73;;;20.43;;
44750;SDS011;30477;48.224;11.470;2022-12-11T01:28:38;38.65;;;20.85;;
44750;SDS011;30477;48.224;11.470;2022-12-11T01:31:06;34.45;;;21.13;;
44750;SDS011;30477;48.224;11.470;2022-12-11T01:33:33;36.83;;;21.25;;
44750;SDS011;30477;48.224;11.470;2022-12-11T01:35:58;36.17;;;20.70;;
44750;SDS011;30477;48.224;11.470;2022-12-11T01:38:24;37.70;;;20.55;;
44750;SDS011;30477;48.224;11.470;2022-12-11T01:40:50;34.30;;;19.67;;
44750;SDS011;30477;48.224;11.470;2022-12-11T01:43:16;35.25;;;20.00;;
44750;SDS011;30477;48.224;11.470;2022-12-11T01:45:43;33.72;;;18.73;;
44750;SDS011;30477;48.224;11.470;2022-12-11T01:48:15;37.40;;;19.27;;
44750;SDS011;30477;48.224;11.470;2022-12-11T01:50:50;32.35;;;19.50;;
44750;SDS011;30477;48.224;11.470;2022-12-11T01:53:20;36.33;;;20.35;;
44750;SDS011;30477;48.224;11.470;2022-12-11T01:55:49;39.78;;;21.58;;
44750;SDS011;30477;48.224;11.470;2022-12-11T01:58:17;39.35;;;21.08;;
44750;SDS011;30477;48.224;11.470;2022-12-11T02:00:44;38.42;;;20.90;;
44750;SDS011;30477;48.224;11.470;2022-12-11T02:03:10;35.30;;;19.67;;
44750;SDS011;30477;48.224;11.470;2022-12-11T02:05:35;38.10;;;20.77;;
44750;SDS011;30477;48.224;11.470;2022-12-11T02:08:01;34.90;;;20.13;;
44750;SDS011;30477;48.224;11.470;2022-12-11T02:10:30;39.47;;;21.13;;
44750;SDS011;30477;48.224;11.470;2022-12-11T02:13:13;34.63;;;20.33;;
44750;SDS011;30477;48.224;11.470;2022-12-11T02:15:47;37.08;;;20.20;;
44750;SDS011;30477;48.224;11.470;2022-12-11T02:26:51;34.63;;;20.35;;
44750;SDS011;30477;48.224;11.470;2022-12-11T02:29:12;37.97;;;20.50;;
44750;SDS011;30477;48.224;11.470;2022-12-11T02:31:45;34.22;;;19.77;;
44750;SDS011;30477;48.224;11.470;2022-12-11T02:34:54;34.55;;;18.83;;
44750;SDS011;30477;48.224;11.470;2022-12-11T02:37:17;34.05;;;19.35;;
44750;SDS011;30477;48.224;11.470;2022-12-11T02:39:45;35.67;;;20.67;;
44750;SDS011;30477;48.224;11.470;2022-12-11T02:42:14;37.25;;;19.13;;
44750;SDS011;30477;48.224;11.470;2022-12-11T02:44:40;34.97;;;20.15;;
44750;SDS011;30477;48.224;11.470;2022-12-11T02:47:10;33.13;;;18.50;;
44750;SDS011;30477;48.224;11.470;2022-12-11T02:49:38;34.83;;;17.83;;
44750;SDS011;30477;48.224;11.470;2022-12-11T02:52:06;33.72;;;18.83;;
44750;SDS011;30477;48.224;11.470;2022-12-11T02:54:32;30.63;;;18.37;;
44750;SDS011;30477;48.224;11.470;2022-12-11T02:57:04;31.65;;;18.55;;
44750;SDS011;30477;48.224;11.470;2022-12-11T02:59:43;28.75;;;17.33;;
44750;SDS011;30477;48.224;11.470;2022-12-11T03:02:10;23.43;;;12.73;;
44750;SDS011;30477;48.224;11.470;2022-12-11T03:04:37;38.05;;;20.20;;
44750;SDS011;30477;48.224;11.470;2022-12-11T03:07:11;28.35;;;16.85;;
44750;SDS011;30477;48.224;11.470;2022-12-11T03:09:44;35.95;;;19.63;;
44750;SDS011;30477;48.224;11.470;2022-12-11T03:12:16;31.50;;;18.58;;
44750;SDS011;30477;48.224;11.470;2022-12-11T03:14:45;30.23;;;17.33;;
44750;SDS011;30477;48.224;11.470;2022-12-11T03:19:52;30.33;;;17.42;;
44750;SDS011;30477;48.224;11.470;2022-12-11T03:22:26;31.85;;;17.38;;
44750;SDS011;30477;48.224;11.470;2022-12-11T03:25:03;33.15;;;17.98;;
44750;SDS011;30477;48.224;11.470;2022-12-11T03:27:41;28.48;;;16.40;;
44750;SDS011;30477;48.224;11.470;2022-12-11T03:30:16;31.05;;;17.63;;
44750;SDS011;30477;48.224;11.470;2022-12-11T03:32:50;32.58;;;18.35;;
44750;SDS011;30477;48.224;11.470;2022-12-11T03:37:51;30.30;;;17.52;;
44750;SDS011;30477;48.224;11.470;2022-12-11T03:40:21;31.60;;;17.85;;
44750;SDS011;30477;48.224;11.470;2022-12-11T03:42:50;29.77;;;18.00;;
44750;SDS011;30477;48.224;11.470;2022-12-11T03:45:18;30.80;;;17.55;;
44750;SDS011;30477;48.224;11.470;2022-12-11T03:47:46;33.55;;;19.42;;
44750;SDS011;30477;48.224;11.470;2022-12-11T03:50:12;30.75;;;17.67;;
44750;SDS011;30477;48.224;11.470;2022-12-11T03:52:42;29.67;;;17.20;;
44750;SDS011;30477;48.224;11.470;2022-12-11T03:55:09;30.40;;;17.23;;
44750;SDS011;30477;48.224;11.470;2022-12-11T03:57:37;32.42;;;17.60;;
44750;SDS011;30477;48.224;11.470;2022-12-11T04:00:04;27.08;;;16.75;;
44750;SDS011;30477;48.224;11.470;2022-12-11T04:02:30;30.23;;;17.35;;
44750;SDS011;30477;48.224;11.470;2022-12-11T04:04:56;27.77;;;16.13;;
44750;SDS011;30477;48.224;11.470;2022-12-11T04:07:21;27.73;;;16.90;;
44750;SDS011;30477;48.224;11.470;2022-12-11T04:09:46;32.00;;;18.23;;
44750;SDS011;30477;48.224;11.470;2022-12-11T04:12:12;29.23;;;16.13;;
44750;SDS011;30477;48.224;11.470;2022-12-11T04:14:37;26.00;;;15.17;;
44750;SDS011;30477;48.224;11.470;2022-12-11T04:17:21;26.15;;;15.40;;
44750;SDS011;30477;48.224;11.470;2022-12-11T04:20:05;24.90;;;14.93;;
44750;SDS011;30477;48.224;11.470;2022-12-11T04:22:49;24.65;;;15.07;;
44750;SDS011;30477;48.224;11.470;2022-12-11T04:25:33;26.75;;;15.30;;
44750;SDS011;30477;48.224;11.470;2022-12-11T04:27:58;27.00;;;15.30;;
44750;SDS011;30477;48.224;11.470;2022-12-11T04:30:24;26.87;;;13.90;;
44750;SDS011;30477;48.224;11.470;2022-12-11T04:32:50;25.45;;;14.65;;
44750;SDS011;30477;48.224;11.470;2022-12-11T04:35:17;23.67;;;13.80;;
44750;SDS011;30477;48.224;11.470;2022-12-11T04:37:42;22.50;;;13.50;;
44750;SDS011;30477;48.224;11.470;2022-12-11T04:40:09;21.43;;;12.93;;
44750;SDS011;30477;48.224;11.470;2022-12-11T04:42:36;20.98;;;12.43;;
44750;SDS011;30477;48.224;11.470;2022-12-11T04:45:02;20.23;;;12.98;;
44750;SDS011;30477;48.224;11.470;2022-12-11T04:47:29;22.58;;;13.68;;
44750;SDS011;30477;48.224;11.470;2022-12-11T04:49:54;21.93;;;13.17;;
44750;SDS011;30477;48.224;11.470;2022-12-11T04:52:20;21.77;;;12.87;;
44750;SDS011;30477;48.224;11.470;2022-12-11T04:54:45;22.33;;;13.90;;
44750;SDS011;30477;48.224;11.470;2022-12-11T04:57:11;25.93;;;13.97;;
44750;SDS011;30477;48.224;11.470;2022-12-11T04:59:36;20.30;;;12.67;;
44750;SDS011;30477;48.224;11.470;2022-12-11T05:02:02;21.45;;;13.35;;
44750;SDS011;30477;48.224;11.470;2022-12-11T05:04:31;25.17;;;14.07;;
44750;SDS011;30477;48.224;11.470;2022-12-11T05:06:58;24.17;;;14.38;;
44750;SDS011;30477;48.224;11.470;2022-12-11T05:09:24;26.55;;;15.18;;
44750;SDS011;30477;48.224;11.470;2022-12-11T05:11:50;28.83;;;16.25;;
44750;SDS011;30477;48.224;11.470;2022-12-11T05:14:16;29.00;;;15.98;;
44750;SDS011;30477;48.224;11.470;2022-12-11T05:16:41;31.93;;;16.87;;
44750;SDS011;30477;48.224;11.470;2022-12-11T05:19:07;30.30;;;16.57;;
44750;SDS011;30477;48.224;11.470;2022-12-11T05:21:32;27.27;;;15.73;;
44750;SDS011;30477;48.224;11.470;2022-12-11T05:23:57;29.13;;;16.20;;
44750;SDS011;30477;48.224;11.470;2022-12-11T05:26:23;24.10;;;14.27;;
44750;SDS011;30477;48.224;11.470;2022-12-11T05:28:53;26.97;;;15.30;;
44750;SDS011;30477;48.224;11.470;2022-12-11T05:31:23;24.30;;;14.70;;
44750;SDS011;30477;48.224;11.470;2022-12-11T05:33:50;25.40;;;14.30;;
44750;SDS011;30477;48.224;11.470;2022-12-11T05:36:19;25.90;;;14.68;;
44750;SDS011;30477;48.224;11.470;2022-12-11T05:38:55;26.75;;;13.98;;
44750;SDS011;30477;48.224;11.470;2022-12-11T05:41:22;23.55;;;13.13;;
44750;SDS011;30477;48.224;11.470;2022-12-11T05:43:50;22.52;;;13.70;;
44750;SDS011;30477;48.224;11.470;2022-12-11T05:46:17;25.13;;;14.10;;
44750;SDS011;30477;48.224;11.470;2022-12-11T05:48:45;27.00;;;14.32;;
44750;SDS011;30477;48.224;11.470;2022-12-11T05:51:13;23.27;;;14.38;;
44750;SDS011;30477;48.224;11.470;2022-12-11T05:53:41;26.48;;;15.05;;
44750;SDS011;30477;48.224;11.470;2022-12-11T05:56:12;23.80;;;14.52;;
44750;SDS011;30477;48.224;11.470;2022-12-11T05:58:40;25.20;;;15.15;;
44750;SDS011;30477;48.224;11.470;2022-12-11T06:01:07;26.63;;;14.98;;
44750;SDS011;30477;48.224;11.470;2022-12-11T06:03:44;25.23;;;14.57;;
44750;SDS011;30477;48.224;11.470;2022-12-11T06:06:10;25.27;;;15.37;;
44750;SDS011;30477;48.224;11.470;2022-12-11T06:08:36;24.10;;;14.00;;
44750;SDS011;30477;48.224;11.470;2022-12-11T06:11:02;24.07;;;14.37;;
44750;SDS011;30477;48.224;11.470;2022-12-11T06:13:28;26.35;;;15.15;;
44750;SDS011;30477;48.224;11.470;2022-12-11T06:15:54;24.83;;;14.47;;
44750;SDS011;30477;48.224;11.470;2022-12-11T06:18:19;24.05;;;14.52;;
44750;SDS011;30477;48.224;11.470;2022-12-11T06:20:45;26.27;;;15.33;;
44750;SDS011;30477;48.224;11.470;2022-12-11T06:23:10;24.47;;;14.47;;
44750;SDS011;30477;48.224;11.470;2022-12-11T06:25:38;31.17;;;15.67;;
44750;SDS011;30477;48.224;11.470;2022-12-11T06:28:04;24.92;;;15.15;;
44750;SDS011;30477;48.224;11.470;2022-12-11T06:32:57;25.77;;;14.77;;
44750;SDS011;30477;48.224;11.470;2022-12-11T06:35:22;25.30;;;15.25;;
44750;SDS011;30477;48.224;11.470;2022-12-11T06:37:48;30.83;;;17.23;;
44750;SDS011;30477;48.224;11.470;2022-12-11T06:40:13;27.67;;;15.37;;
44750;SDS011;30477;48.224;11.470;2022-12-11T06:42:38;28.50;;;15.77;;
44750;SDS011;30477;48.224;11.470;2022-12-11T06:45:04;31.00;;;17.43;;
44750;SDS011;30477;48.224;11.470;2022-12-11T06:47:30;29.50;;;16.77;;
44750;SDS011;30477;48.224;11.470;2022-12-11T06:49:56;26.92;;;16.40;;
44750;SDS011;30477;48.224;11.470;2022-12-11T06:52:22;30.20;;;17.25;;
44750;SDS011;30477;48.224;11.470;2022-12-11T06:54:49;30.55;;;17.48;;
44750;SDS011;30477;48.224;11.470;2022-12-11T06:57:15;27.95;;;15.73;;
44750;SDS011;30477;48.224;11.470;2022-12-11T06:59:41;30.70;;;17.67;;
44750;SDS011;30477;48.224;11.470;2022-12-11T07:02:09;31.60;;;18.35;;
44750;SDS011;30477;48.224;11.470;2022-12-11T07:04:39;30.67;;;18.23;;
44750;SDS011;30477;48.224;11.470;2022-12-11T07:07:05;30.73;;;17.75;;
44750;SDS011;30477;48.224;11.470;2022-12-11T07:11:56;31.57;;;17.53;;
44750;SDS011;30477;48.224;11.470;2022-12-11T07:14:22;30.83;;;17.60;;
44750;SDS011;30477;48.224;11.470;2022-12-11T07:16:47;32.80;;;18.83;;
44750;SDS011;30477;48.224;11.470;2022-12-11T07:19:12;30.17;;;17.80;;
44750;SDS011;30477;48.224;11.470;2022-12-11T07:21:38;31.63;;;18.73;;
44750;SDS011;30477;48.224;11.470;2022-12-11T07:24:03;32.47;;;18.30;;
44750;SDS011;30477;48.224;11.470;2022-12-11T07:26:29;32.60;;;19.50;;
44750;SDS011;30477;48.224;11.470;2022-12-11T07:28:58;31.40;;;18.70;;
44750;SDS011;30477;48.224;11.470;2022-12-11T07:31:25;31.73;;;18.60;;
44750;SDS011;30477;48.224;11.470;2022-12-11T07:33:56;35.03;;;19.83;;
44750;SDS011;30477;48.224;11.470;2022-12-11T07:36:23;34.10;;;18.95;;
44750;SDS011;30477;48.224;11.470;2022-12-11T07:38:49;35.17;;;19.95;;
44750;SDS011;30477;48.224;11.470;2022-12-11T07:41:15;33.08;;;19.27;;
44750;SDS011;30477;48.224;11.470;2022-12-11T07:43:41;35.38;;;19.63;;
44750;SDS011;30477;48.224;11.470;2022-12-11T07:46:09;33.60;;;19.13;;
44750;SDS011;30477;48.224;11.470;2022-12-11T07:48:37;33.85;;;19.83;;
44750;SDS011;30477;48.224;11.470;2022-12-11T07:51:07;33.83;;;19.88;;
44750;SDS011;30477;48.224;11.470;2022-12-11T07:56:06;33.40;;;19.50;;
44750;SDS011;30477;48.224;11.470;2022-12-11T07:58:32;32.63;;;19.52;;
44750;SDS011;30477;48.224;11.470;2022-12-11T08:00:58;30.88;;;18.60;;
44750;SDS011;30477;48.224;11.470;2022-12-11T08:03:23;34.23;;;19.67;;
44750;SDS011;30477;48.224;11.470;2022-12-11T08:05:50;32.38;;;19.30;;
44750;SDS011;30477;48.224;11.470;2022-12-11T08:08:16;32.55;;;18.42;;
44750;SDS011;30477;48.224;11.470;2022-12-11T08:13:08;35.20;;;19.30;;
44750;SDS011;30477;48.224;11.470;2022-12-11T08:15:34;35.77;;;19.67;;
44750;SDS011;30477;48.224;11.470;2022-12-11T08:18:00;32.03;;;18.45;;
44750;SDS011;30477;48.224;11.470;2022-12-11T08:20:25;33.47;;;18.87;;
44750;SDS011;30477;48.224;11.470;2022-12-11T08:22:51;33.53;;;19.30;;
44750;SDS011;30477;48.224;11.470;2022-12-11T08:25:16;33.03;;;19.40;;
44750;SDS011;30477;48.224;11.470;2022-12-11T08:27:41;34.13;;;20.07;;
44750;SDS011;30477;48.224;11.470;2022-12-11T08:30:07;32.97;;;19.37;;
44750;SDS011;30477;48.224;11.470;2022-12-11T08:32:33;34.30;;;20.58;;
44750;SDS011;30477;48.224;11.470;2022-12-11T08:34:59;35.43;;;21.30;;
44750;SDS011;30477;48.224;11.470;2022-12-11T08:37:24;33.50;;;19.85;;
44750;SDS011;30477;48.224;11.470;2022-12-11T08:39:50;35.67;;;19.97;;
44750;SDS011;30477;48.224;11.470;2022-12-11T08:42:15;33.27;;;19.17;;
44750;SDS011;30477;48.224;11.470;2022-12-11T08:44:40;32.43;;;19.47;;
44750;SDS011;30477;48.224;11.470;2022-12-11T08:47:06;31.70;;;19.67;;
44750;SDS011;30477;48.224;11.470;2022-12-11T08:49:33;30.08;;;18.30;;
44750;SDS011;30477;48.224;11.470;2022-12-11T08:51:59;33.22;;;19.88;;
44750;SDS011;30477;48.224;11.470;2022-12-11T08:54:24;31.53;;;18.93;;
44750;SDS011;30477;48.224;11.470;2022-12-11T08:56:50;31.77;;;19.23;;
44750;SDS011;30477;48.224;11.470;2022-12-11T08:59:15;35.50;;;19.27;;
44750;SDS011;30477;48.224;11.470;2022-12-11T09:01:42;33.53;;;19.42;;
44750;SDS011;30477;48.224;11.470;2022-12-11T09:04:08;29.30;;;17.77;;
44750;SDS011;30477;48.224;11.470;2022-12-11T09:06:33;30.30;;;17.97;;
44750;SDS011;30477;48.224;11.470;2022-12-11T09:08:59;29.47;;;18.33;;
44750;SDS011;30477;48.224;11.470;2022-12-11T09:11:26;30.00;;;18.25;;
44750;SDS011;30477;48.224;11.470;2022-12-11T09:13:53;30.25;;;18.15;;
44750;SDS011;30477;48.224;11.470;2022-12-11T09:16:20;29.15;;;18.17;;
44750;SDS011;30477;48.224;11.470;2022-12-11T09:18:47;29.10;;;17.90;;
44750;SDS011;30477;48.224;11.470;2022-12-11T09:21:15;27.73;;;17.17;;
44750;SDS011;30477;48.224;11.470;2022-12-11T09:23:42;29.63;;;17.75;;
44750;SDS011;30477;48.224;11.470;2022-12-11T09:26:09;28.30;;;17.73;;
44750;SDS011;30477;48.224;11.470;2022-12-11T09:28:37;31.05;;;18.00;;
44750;SDS011;30477;48.224;11.470;2022-12-11T09:33:33;30.77;;;17.67;;
44750;SDS011;30477;48.224;11.470;2022-12-11T09:35:59;31.77;;;19.10;;
44750;SDS011;30477;48.224;11.470;2022-12-11T09:38:25;30.33;;;18.20;;
44750;SDS011;30477;48.224;11.470;2022-12-11T09:40:50;32.47;;;18.90;;
44750;SDS011;30477;48.224;11.470;2022-12-11T09:46:04;33.17;;;18.70;;
44750;SDS011;30477;48.224;11.470;2022-12-11T09:48:33;29.88;;;17.67;;
44750;SDS011;30477;48.224;11.470;2022-12-11T09:51:00;29.08;;;16.40;;
44750;SDS011;30477;48.224;11.470;2022-12-11T09:53:35;29.93;;;17.53;;
44750;SDS011;30477;48.224;11.470;2022-12-11T10:01:43;29.00;;;18.08;;
44750;SDS011;30477;48.224;11.470;2022-12-11T10:17:43;63.20;;;30.75;;
44750;SDS011;30477;48.224;11.470;2022-12-11T10:20:21;49.47;;;31.95;;
44750;SDS011;30477;48.224;11.470;2022-12-11T10:22:49;33.25;;;18.75;;
44750;SDS011;30477;48.224;11.470;2022-12-11T10:27:48;30.85;;;18.23;;
44750;SDS011;30477;48.224;11.470;2022-12-11T10:30:15;25.80;;;16.48;;
44750;SDS011;30477;48.224;11.470;2022-12-11T10:32:45;31.08;;;17.92;;
44750;SDS011;30477;48.224;11.470;2022-12-11T10:35:17;28.52;;;17.33;;
44750;SDS011;30477;48.224;11.470;2022-12-11T10:40:57;34.50;;;19.30;;
44750;SDS011;30477;48.224;11.470;2022-12-11T10:43:32;29.77;;;17.00;;
44750;SDS011;30477;48.224;11.470;2022-12-11T10:45:58;31.90;;;17.40;;
44750;SDS011;30477;48.224;11.470;2022-12-11T10:48:23;27.80;;;17.03;;
44750;SDS011;30477;48.224;11.470;2022-12-11T10:51:00;31.00;;;17.20;;
44750;SDS011;30477;48.224;11.470;2022-12-11T10:53:28;27.08;;;17.10;;
44750;SDS011;30477;48.224;11.470;2022-12-11T10:55:55;27.75;;;16.65;;
44750;SDS011;30477;48.224;11.470;2022-12-11T10:58:23;27.48;;;16.38;;
44750;SDS011;30477;48.224;11.470;2022-12-11T11:00:59;27.77;;;17.63;;
44750;SDS011;30477;48.224;11.470;2022-12-11T11:03:34;29.60;;;16.58;;
44750;SDS011;30477;48.224;11.470;2022-12-11T11:08:44;27.13;;;16.88;;
44750;SDS011;30477;48.224;11.470;2022-12-11T11:11:19;34.00;;;18.75;;
44750;SDS011;30477;48.224;11.470;2022-12-11T11:14:03;31.40;;;17.95;;
44750;SDS011;30477;48.224;11.470;2022-12-11T11:16:43;27.98;;;17.33;;
44750;SDS011;30477;48.224;11.470;2022-12-11T11:19:24;31.23;;;16.77;;
44750;SDS011;30477;48.224;11.470;2022-12-11T11:21:54;29.00;;;17.35;;
44750;SDS011;30477;48.224;11.470;2022-12-11T11:32:45;26.33;;;14.18;;
44750;SDS011;30477;48.224;11.470;2022-12-11T11:37:36;22.47;;;14.60;;
44750;SDS011;30477;48.224;11.470;2022-12-11T11:54:02;22.67;;;15.13;;
44750;SDS011;30477;48.224;11.470;2022-12-11T11:56:45;24.73;;;15.20;;
44750;SDS011;30477;48.224;11.470;2022-12-11T12:01:58;25.88;;;15.70;;
44750;SDS011;30477;48.224;11.470;2022-12-11T12:04:25;22.63;;;14.52;;
44750;SDS011;30477;48.224;11.470;2022-12-11T12:07:08;23.52;;;14.23;;
44750;SDS011;30477;48.224;11.470;2022-12-11T12:15:14;24.38;;;14.25;;
44750;SDS011;30477;48.224;11.470;2022-12-11T12:17:47;26.75;;;13.60;;
44750;SDS011;30477;48.224;11.470;2022-12-11T12:20:28;21.52;;;12.90;;
44750;SDS011;30477;48.224;11.470;2022-12-11T12:26:02;20.58;;;12.73;;
44750;SDS011;30477;48.224;11.470;2022-12-11T12:28:42;25.67;;;13.43;;
44750;SDS011;30477;48.224;11.470;2022-12-11T12:44:40;16.98;;;10.82;;
44750;SDS011;30477;48.224;11.470;2022-12-11T12:47:17;17.05;;;10.50;;
44750;SDS011;30477;48.224;11.470;2022-12-11T12:52:25;16.58;;;11.07;;
44750;SDS011;30477;48.224;11.470;2022-12-11T12:54:55;24.40;;;11.32;;
44750;SDS011;30477;48.224;11.470;2022-12-11T12:57:46;19.63;;;10.27;;
44750;SDS011;30477;48.224;11.470;2022-12-11T13:02:52;15.90;;;10.23;;
44750;SDS011;30477;48.224;11.470;2022-12-11T13:05:24;13.73;;;9.00;;
44750;SDS011;30477;48.224;11.470;2022-12-11T13:07:53;13.15;;;8.70;;
44750;SDS011;30477;48.224;11.470;2022-12-11T13:10:25;15.02;;;10.13;;
44750;SDS011;30477;48.224;11.470;2022-12-11T13:12:54;19.58;;;9.45;;
44750;SDS011;30477;48.224;11.470;2022-12-11T13:18:00;20.05;;;9.68;;
44750;SDS011;30477;48.224;11.470;2022-12-11T13:20:29;15.38;;;9.13;;
44750;SDS011;30477;48.224;11.470;2022-12-11T13:25:31;16.00;;;10.13;;
44750;SDS011;30477;48.224;11.470;2022-12-11T13:28:20;17.02;;;10.90;;
44750;SDS011;30477;48.224;11.470;2022-12-11T13:31:24;15.50;;;10.23;;
44750;SDS011;30477;48.224;11.470;2022-12-11T13:34:06;18.02;;;10.98;;
44750;SDS011;30477;48.224;11.470;2022-12-11T13:36:45;18.52;;;10.13;;
44750;SDS011;30477;48.224;11.470;2022-12-11T13:39:16;18.30;;;10.32;;
44750;SDS011;30477;48.224;11.470;2022-12-11T13:41:43;21.48;;;11.45;;
44750;SDS011;30477;48.224;11.470;2022-12-11T13:44:21;17.60;;;10.77;;
44750;SDS011;30477;48.224;11.470;2022-12-11T13:46:50;17.63;;;11.23;;
44750;SDS011;30477;48.224;11.470;2022-12-11T13:49:20;18.05;;;10.70;;
44750;SDS011;30477;48.224;11.470;2022-12-11T13:51:59;16.23;;;9.82;;
44750;SDS011;30477;48.224;11.470;2022-12-11T13:54:26;17.92;;;10.45;;
44750;SDS011;30477;48.224;11.470;2022-12-11T13:56:57;16.92;;;9.90;;
44750;SDS011;30477;48.224;11.470;2022-12-11T13:59:33;20.02;;;10.82;;
44750;SDS011;30477;48.224;11.470;2022-12-11T14:02:03;21.10;;;11.07;;
44750;SDS011;30477;48.224;11.470;2022-12-11T14:04:48;19.33;;;9.57;;
44750;SDS011;30477;48.224;11.470;2022-12-11T14:07:29;17.20;;;9.75;;
44750;SDS011;30477;48.224;11.470;2022-12-11T14:10:02;14.35;;;9.77;;
44750;SDS011;30477;48.224;11.470;2022-12-11T14:12:30;16.63;;;9.63;;
44750;SDS011;30477;48.224;11.470;2022-12-11T14:14:57;17.85;;;11.05;;
44750;SDS011;30477;48.224;11.470;2022-12-11T14:17:27;14.82;;;10.27;;
44750;SDS011;30477;48.224;11.470;2022-12-11T14:19:55;21.48;;;10.98;;
44750;SDS011;30477;48.224;11.470;2022-12-11T14:22:24;17.20;;;10.68;;
44750;SDS011;30477;48.224;11.470;2022-12-11T14:24:58;18.70;;;11.30;;
44750;SDS011;30477;48.224;11.470;2022-12-11T14:27:28;13.20;;;8.38;;
44750;SDS011;30477;48.224;11.470;2022-12-11T14:29:54;17.23;;;10.18;;
44750;SDS011;30477;48.224;11.470;2022-12-11T14:35:01;18.45;;;10.48;;
44750;SDS011;30477;48.224;11.470;2022-12-11T14:37:30;16.25;;;10.07;;
44750;SDS011;30477;48.224;11.470;2022-12-11T14:40:00;17.05;;;10.93;;
44750;SDS011;30477;48.224;11.470;2022-12-11T14:42:35;9.63;;;6.88;;
44750;SDS011;30477;48.224;11.470;2022-12-11T14:47:53;19.70;;;11.20;;
44750;SDS011;30477;48.224;11.470;2022-12-11T14:50:33;18.00;;;10.40;;
44750;SDS011;30477;48.224;11.470;2022-12-11T14:53:06;17.27;;;10.68;;
44750;SDS011;30477;48.224;11.470;2022-12-11T14:55:37;16.63;;;10.27;;
44750;SDS011;30477;48.224;11.470;2022-12-11T14:58:17;15.93;;;9.82;;
44750;SDS011;30477;48.224;11.470;2022-12-11T15:01:04;14.90;;;9.88;;
44750;SDS011;30477;48.224;11.470;2022-12-11T15:03:46;16.23;;;9.90;;
44750;SDS011;30477;48.224;11.470;2022-12-11T15:11:46;20.40;;;11.82;;
44750;SDS011;30477;48.224;11.470;2022-12-11T15:14:15;21.02;;;11.77;;
44750;SDS011;30477;48.224;11.470;2022-12-11T15:16:43;16.55;;;11.25;;
44750;SDS011;30477;48.224;11.470;2022-12-11T15:19:21;22.52;;;13.05;;
44750;SDS011;30477;48.224;11.470;2022-12-11T15:21:47;19.58;;;11.60;;
44750;SDS011;30477;48.224;11.470;2022-12-11T15:27:20;19.97;;;12.20;;
44750;SDS011;30477;48.224;11.470;2022-12-11T15:29:46;19.33;;;11.95;;
44750;SDS011;30477;48.224;11.470;2022-12-11T15:34:46;20.37;;;13.50;;
44750;SDS011;30477;48.224;11.470;2022-12-11T15:37:16;21.98;;;13.30;;
44750;SDS011;30477;48.224;11.470;2022-12-11T15:39:45;22.90;;;12.88;;
44750;SDS011;30477;48.224;11.470;2022-12-11T15:42:12;21.60;;;13.10;;
44750;SDS011;30477;48.224;11.470;2022-12-11T15:44:40;21.05;;;13.35;;
44750;SDS011;30477;48.224;11.470;2022-12-11T15:47:17;21.33;;;12.95;;
44750;SDS011;30477;48.224;11.470;2022-12-11T15:49:46;23.40;;;13.80;;
44750;SDS011;30477;48.224;11.470;2022-12-11T15:52:11;19.30;;;13.17;;
44750;SDS011;30477;48.224;11.470;2022-12-11T15:54:36;21.37;;;13.57;;
44750;SDS011;30477;48.224;11.470;2022-12-11T15:57:03;25.17;;;12.93;;
44750;SDS011;30477;48.224;11.470;2022-12-11T15:59:30;26.23;;;14.05;;
44750;SDS011;30477;48.224;11.470;2022-12-11T16:01:57;21.38;;;13.85;;
44750;SDS011;30477;48.224;11.470;2022-12-11T16:04:22;21.67;;;14.23;;
44750;SDS011;30477;48.224;11.470;2022-12-11T16:06:47;24.77;;;13.87;;
44750;SDS011;30477;48.224;11.470;2022-12-11T16:09:13;24.73;;;14.33;;
44750;SDS011;30477;48.224;11.470;2022-12-11T16:11:38;20.13;;;13.33;;
44750;SDS011;30477;48.224;11.470;2022-12-11T16:14:04;20.50;;;14.07;;
44750;SDS011;30477;48.224;11.470;2022-12-11T16:16:29;22.70;;;14.57;;
44750;SDS011;30477;48.224;11.470;2022-12-11T16:21:20;22.10;;;14.37;;
44750;SDS011;30477;48.224;11.470;2022-12-11T16:23:46;24.73;;;14.60;;
44750;SDS011;30477;48.224;11.470;2022-12-11T16:26:11;25.07;;;15.37;;
44750;SDS011;30477;48.224;11.470;2022-12-11T16:28:38;20.95;;;13.45;;
44750;SDS011;30477;48.224;11.470;2022-12-11T16:31:08;23.65;;;13.90;;
44750;SDS011;30477;48.224;11.470;2022-12-11T16:33:34;25.08;;;15.77;;